createdAt,value
2019-06-26T00:01:04.808Z,20.37
2019-06-26T00:04:09.121Z,20.34
2019-06-26T00:07:13.443Z,20.28
2019-06-26T00:10:17.968Z,20.22
2019-06-26T00:13:26.703Z,20.21
2019-06-26T00:16:28.375Z,20.24
2019-06-26T00:19:32.666Z,20.20
2019-06-26T00:22:36.979Z,20.19
2019-06-26T00:25:41.269Z,20.12
2019-06-26T00:28:45.589Z,20.14
2019-06-26T00:31:49.878Z,20.14
2019-06-26T00:34:54.211Z,20.09
2019-06-26T00:37:58.499Z,20.01
2019-06-26T00:41:02.821Z,19.94
2019-06-26T00:44:08.569Z,19.88
2019-06-26T00:47:12.991Z,19.81
2019-06-26T00:50:17.699Z,19.74
2019-06-26T00:53:21.997Z,19.68
2019-06-26T00:56:26.294Z,19.68
2019-06-26T00:59:30.609Z,19.67
2019-06-26T01:02:34.907Z,19.68
2019-06-26T01:05:39.506Z,19.68
2019-06-26T01:08:43.781Z,19.67
2019-06-26T01:11:48.101Z,19.71
2019-06-26T01:14:52.405Z,19.72
2019-06-26T01:17:56.708Z,19.69
2019-06-26T01:21:02.036Z,19.71
2019-06-26T01:24:06.565Z,19.67
2019-06-26T01:27:10.875Z,19.67
2019-06-26T01:30:15.557Z,19.67
2019-06-26T01:33:19.876Z,19.65
2019-06-26T01:36:24.304Z,19.63
2019-06-26T01:39:30.471Z,19.63
2019-06-26T01:42:34.765Z,19.63
2019-06-26T01:45:39.115Z,19.62
2019-06-26T01:48:43.392Z,19.65
2019-06-26T01:51:47.697Z,19.72
2019-06-26T01:54:51.990Z,19.82
2019-06-26T01:57:56.377Z,19.93
2019-06-26T02:01:00.707Z,19.92
2019-06-26T02:04:05.134Z,19.89
2019-06-26T02:07:09.410Z,19.86
2019-06-26T02:10:14.391Z,19.81
2019-06-26T02:13:18.734Z,19.76
2019-06-26T02:16:23.039Z,19.72
2019-06-26T02:19:27.360Z,19.69
2019-06-26T02:22:31.864Z,19.69
2019-06-26T02:25:36.165Z,19.69
2019-06-26T02:28:40.436Z,19.68
2019-06-26T02:31:45.930Z,19.67
2019-06-26T02:34:50.216Z,19.67
2019-06-26T02:37:54.546Z,19.65
2019-06-26T02:40:58.848Z,19.65
2019-06-26T02:44:03.153Z,19.63
2019-06-26T02:47:19.562Z,19.64
2019-06-26T02:50:14.926Z,19.64
2019-06-26T02:53:19.225Z,19.64
2019-06-26T02:56:23.548Z,19.66
2019-06-26T02:59:27.841Z,19.67
2019-06-26T03:02:32.164Z,19.68
2019-06-26T03:05:36.475Z,19.69
2019-06-26T03:08:40.843Z,19.73
2019-06-26T03:11:45.255Z,19.69
2019-06-26T03:14:49.565Z,19.69
2019-06-26T03:17:55.705Z,19.75
2019-06-26T03:20:59.894Z,19.80
2019-06-26T03:24:04.179Z,19.87
2019-06-26T03:27:09.280Z,19.98
2019-06-26T03:30:14.120Z,20.08
2019-06-26T03:33:18.451Z,20.20
2019-06-26T03:36:22.722Z,20.36
2019-06-26T03:39:27.001Z,20.53
2019-06-26T03:42:31.328Z,20.69
2019-06-26T03:45:35.776Z,20.83
2019-06-26T03:48:40.081Z,20.86
2019-06-26T03:51:44.371Z,20.99
2019-06-26T03:54:48.664Z,21.13
2019-06-26T03:57:52.957Z,21.23
2019-06-26T04:00:57.227Z,21.24
2019-06-26T04:04:01.520Z,21.16
2019-06-26T04:07:05.834Z,21.23
2019-06-26T04:10:10.219Z,21.35
2019-06-26T04:13:14.547Z,21.47
2019-06-26T04:16:18.828Z,21.50
2019-06-26T04:19:23.115Z,21.41
2019-06-26T04:22:27.448Z,21.28
2019-06-26T04:25:31.739Z,21.25
2019-06-26T04:28:36.041Z,21.24
2019-06-26T04:31:40.323Z,21.20
2019-06-26T04:34:44.615Z,21.26
2019-06-26T04:37:48.915Z,21.27
2019-06-26T04:40:53.218Z,21.32
2019-06-26T04:43:57.566Z,21.34
2019-06-26T04:47:01.852Z,21.37
2019-06-26T04:50:07.628Z,21.41
2019-06-26T04:53:11.944Z,21.48
2019-06-26T04:56:16.301Z,21.55
2019-06-26T05:03:02.710Z,21.79
2019-06-26T05:06:06.977Z,21.84
2019-06-26T05:09:11.286Z,21.98
2019-06-26T05:12:15.573Z,22.10
2019-06-26T05:15:20.383Z,22.23
2019-06-26T05:18:24.668Z,22.34
2019-06-26T05:21:29.052Z,22.53
2019-06-26T05:24:33.303Z,22.65
2019-06-26T05:27:37.595Z,22.76
2019-06-26T05:30:41.826Z,22.83
2019-06-26T05:33:46.089Z,22.90
2019-06-26T05:36:50.323Z,22.97
2019-06-26T05:39:54.916Z,23.07
2019-06-26T05:42:59.472Z,23.17
2019-06-26T05:46:03.797Z,23.22
2019-06-26T05:49:08.006Z,23.26
2019-06-26T05:52:12.266Z,23.32
2019-06-26T05:55:16.690Z,23.40
2019-06-26T05:58:21.135Z,23.45
2019-06-26T06:01:25.694Z,23.52
2019-06-26T06:04:30.119Z,23.54
2019-06-26T06:07:34.354Z,23.57
2019-06-26T06:10:38.647Z,23.67
2019-06-26T06:13:42.907Z,23.80
2019-06-26T06:16:48.087Z,23.79
2019-06-26T06:19:52.454Z,23.84
2019-06-26T06:22:56.705Z,23.94
2019-06-26T06:26:00.925Z,24.02
2019-06-26T06:29:05.185Z,24.13
2019-06-26T06:32:09.516Z,24.23
2019-06-26T06:35:14.171Z,24.30
2019-06-26T06:38:18.423Z,24.40
2019-06-26T06:41:22.612Z,24.43
2019-06-26T06:44:26.865Z,24.51
2019-06-26T06:47:31.149Z,24.63
2019-06-26T06:50:35.385Z,24.70
2019-06-26T06:53:39.619Z,24.73
2019-06-26T06:56:43.844Z,24.76
2019-06-26T06:59:48.304Z,24.82
2019-06-26T07:02:52.587Z,24.95
2019-06-26T07:05:56.848Z,25.03
2019-06-26T07:09:01.105Z,25.09
2019-06-26T07:12:05.338Z,25.13
2019-06-26T07:15:10.457Z,25.08
2019-06-26T07:18:14.746Z,25.16
2019-06-26T07:21:19.002Z,25.30
2019-06-26T07:24:23.253Z,25.45
2019-06-26T07:27:27.531Z,25.51
2019-06-26T07:30:31.766Z,25.60
2019-06-26T07:33:36.031Z,25.74
2019-06-26T07:36:40.304Z,25.70
2019-06-26T07:39:44.604Z,25.85
2019-06-26T07:42:48.846Z,25.95
2019-06-26T07:45:53.115Z,26.01
2019-06-26T07:48:57.765Z,26.02
2019-06-26T07:52:02.072Z,26.10
2019-06-26T07:55:06.851Z,26.20
2019-06-26T07:58:11.084Z,26.29
2019-06-26T08:01:15.306Z,26.32
2019-06-26T08:04:19.564Z,26.33
2019-06-26T08:07:23.778Z,26.29
2019-06-26T08:10:28.003Z,26.27
2019-06-26T08:13:32.322Z,26.19
2019-06-26T08:16:36.644Z,26.37
2019-06-26T08:19:40.985Z,26.30
2019-06-26T08:22:45.266Z,26.01
2019-06-26T08:25:49.537Z,26.05
2019-06-26T08:28:53.871Z,25.99
2019-06-26T08:31:58.149Z,26.18
2019-06-26T08:35:02.461Z,26.17
2019-06-26T08:38:12.446Z,26.25
2019-06-26T08:41:13.863Z,26.31
2019-06-26T08:44:18.133Z,26.35
2019-06-26T08:47:22.586Z,26.44
2019-06-26T08:50:26.954Z,26.35
2019-06-26T08:53:32.786Z,26.32
2019-06-26T08:56:37.064Z,26.23
2019-06-26T08:59:41.359Z,26.20
2019-06-26T09:02:45.623Z,26.37
2019-06-26T09:05:49.934Z,26.51
2019-06-26T09:08:54.231Z,26.57
2019-06-26T09:12:00.289Z,26.57
2019-06-26T09:15:04.911Z,26.45
2019-06-26T09:18:09.216Z,26.38
2019-06-26T09:21:13.505Z,26.42
2019-06-26T09:24:17.834Z,26.56
2019-06-26T09:27:22.111Z,26.59
2019-06-26T09:30:26.625Z,26.69
2019-06-26T09:33:32.377Z,26.75
2019-06-26T09:36:36.959Z,26.77
2019-06-26T09:39:41.234Z,26.85
2019-06-26T09:42:45.496Z,26.76
2019-06-26T09:45:51.577Z,26.82
2019-06-26T09:48:55.893Z,26.76
2019-06-26T09:52:00.176Z,26.68
2019-06-26T09:55:05.920Z,26.85
2019-06-26T09:58:13.198Z,27.00
2019-06-26T15:41:41.057Z,21.10
2019-06-26T15:44:45.411Z,20.75
2019-06-26T15:48:08.705Z,20.49
2019-06-26T15:51:12.998Z,20.16
2019-06-26T15:54:17.627Z,19.78
2019-06-26T15:57:21.915Z,20.05
2019-06-26T16:00:26.204Z,20.39
2019-06-26T16:03:31.511Z,20.56
2019-06-26T16:06:35.800Z,20.70
2019-06-26T16:09:40.285Z,20.46
2019-06-26T16:12:44.586Z,20.18
2019-06-26T16:15:48.893Z,20.08
2019-06-26T16:18:58.864Z,20.03
2019-06-26T16:22:03.178Z,19.89
2019-06-26T16:25:08.000Z,19.80
2019-06-26T16:28:12.279Z,19.82
2019-06-26T16:31:16.569Z,20.04
2019-06-26T16:34:20.882Z,19.92
2019-06-26T16:37:25.161Z,19.81
2019-06-26T16:40:29.462Z,19.82
2019-06-26T16:43:33.767Z,19.66
2019-06-26T16:46:38.418Z,19.57
2019-06-26T16:49:42.856Z,19.81
2019-06-26T16:52:49.614Z,19.91
2019-06-26T16:55:54.987Z,20.14
2019-06-26T16:58:59.284Z,19.77
2019-06-26T17:02:06.910Z,19.88
2019-06-26T17:05:10.145Z,19.93
2019-06-26T17:08:14.536Z,20.15
2019-06-26T17:11:18.845Z,20.13
2019-06-26T17:14:23.226Z,19.96
2019-06-26T17:17:27.611Z,19.81
2019-06-26T17:20:31.919Z,19.76
2019-06-26T17:23:36.235Z,19.65
2019-06-26T17:26:40.525Z,19.44
2019-06-26T17:29:44.857Z,19.41
2019-06-26T17:32:49.146Z,19.05
2019-06-26T17:35:53.590Z,19.09
2019-06-26T17:38:57.886Z,19.27
2019-06-26T17:42:02.211Z,19.02
2019-06-26T17:45:06.836Z,18.96
2019-06-26T17:48:11.169Z,18.83
2019-06-26T17:51:15.464Z,18.76
2019-06-26T17:54:19.766Z,18.71
2019-06-26T17:57:24.063Z,18.48
2019-06-26T18:00:31.901Z,18.35
2019-06-26T18:03:36.185Z,18.38
2019-06-26T18:06:40.504Z,18.38
2019-06-26T18:09:44.826Z,18.22
2019-06-26T18:12:49.156Z,18.06
2019-06-26T18:15:53.458Z,18.08
2019-06-26T18:18:57.760Z,17.90
2019-06-26T18:22:02.070Z,17.86
2019-06-26T18:25:06.889Z,17.93
2019-06-26T18:28:11.217Z,17.78
2019-06-26T18:31:15.547Z,17.95
2019-06-26T18:34:19.851Z,17.89
2019-06-26T18:37:24.188Z,17.89
2019-06-26T18:40:28.487Z,17.92
2019-06-26T18:43:32.951Z,17.95
2019-06-26T18:46:37.289Z,17.97
2019-06-26T18:49:41.690Z,17.93
2019-06-26T18:52:46.055Z,17.92
2019-06-26T18:55:50.402Z,17.76
2019-06-26T18:58:54.963Z,17.77
2019-06-26T19:02:00.381Z,17.70
2019-06-26T19:05:05.241Z,17.63
2019-06-26T19:08:09.569Z,17.49
2019-06-26T19:11:13.902Z,17.30
2019-06-26T19:14:18.277Z,17.30
2019-06-26T19:17:22.634Z,17.21
2019-06-26T19:20:26.972Z,17.50
2019-06-26T19:23:31.711Z,17.38
2019-06-26T19:26:36.071Z,17.13
2019-06-26T19:29:40.434Z,17.02
2019-06-26T19:32:44.764Z,16.90
2019-06-26T19:35:49.087Z,16.80
2019-06-26T19:38:53.371Z,16.87
2019-06-26T19:41:57.654Z,17.00
2019-06-26T19:45:02.045Z,16.67
2019-06-26T19:48:06.444Z,16.61
2019-06-26T19:51:10.868Z,16.70
2019-06-26T19:54:26.730Z,16.64
2019-06-26T19:57:21.281Z,16.70
2019-06-26T20:00:25.571Z,16.72
2019-06-26T20:03:29.874Z,16.57
2019-06-26T20:06:34.229Z,16.54
2019-06-26T20:09:38.672Z,16.35
2019-06-26T20:12:42.978Z,16.29
2019-06-26T20:15:47.275Z,16.23
2019-06-26T20:18:51.693Z,16.37
2019-06-26T20:21:56.080Z,16.55
2019-06-26T20:25:00.501Z,16.51
2019-06-26T20:28:04.795Z,16.47
2019-06-26T20:31:09.111Z,16.35
2019-06-26T20:34:13.429Z,16.30
2019-06-26T20:37:17.780Z,16.21
2019-06-26T20:40:22.316Z,16.25
2019-06-26T20:43:26.653Z,16.30
2019-06-26T20:46:30.972Z,16.24
2019-06-26T20:49:35.255Z,16.36
2019-06-26T20:52:39.538Z,16.09
2019-06-26T20:55:43.826Z,16.10
2019-06-26T20:58:48.182Z,16.13
2019-06-26T21:01:52.507Z,15.97
2019-06-26T21:04:56.827Z,15.85
2019-06-26T21:08:01.145Z,15.82
2019-06-26T21:11:06.409Z,15.70
2019-06-26T21:14:10.809Z,15.50
2019-06-26T21:17:15.165Z,15.34
2019-06-26T21:20:20.446Z,15.18
2019-06-26T21:23:24.783Z,15.03
2019-06-26T21:26:29.111Z,15.23
2019-06-26T21:29:33.492Z,15.41
2019-06-26T21:32:37.817Z,15.47
2019-06-26T21:35:42.110Z,15.61
2019-06-26T21:38:46.500Z,15.55
2019-06-26T21:41:50.822Z,15.51
2019-06-26T21:44:55.102Z,15.46
2019-06-26T21:47:59.451Z,15.59
2019-06-26T21:51:03.742Z,15.65
2019-06-26T21:54:08.030Z,15.62
2019-06-26T21:57:12.463Z,15.55
2019-06-26T22:00:17.297Z,15.33
2019-06-26T22:03:21.689Z,15.28
2019-06-26T22:06:26.482Z,15.35
2019-06-26T22:09:31.026Z,15.13
2019-06-26T22:12:35.545Z,15.12
2019-06-26T22:15:39.886Z,15.09
2019-06-26T22:18:44.309Z,15.18
2019-06-26T22:21:48.658Z,15.22
2019-06-26T22:24:53.025Z,15.29
2019-06-26T22:27:57.382Z,15.08
2019-06-26T22:31:01.672Z,15.12
2019-06-26T22:34:05.982Z,15.09
2019-06-26T22:37:10.251Z,15.02
2019-06-26T22:40:14.549Z,14.96
2019-06-26T22:43:18.815Z,14.94
2019-06-26T22:46:23.116Z,15.11
2019-06-26T22:49:27.392Z,15.19
2019-06-26T22:52:31.711Z,15.18
2019-06-26T22:55:35.975Z,15.22
2019-06-26T22:58:40.269Z,15.12
2019-06-26T23:01:44.543Z,15.11
2019-06-26T23:04:48.837Z,15.05
2019-06-26T23:07:53.107Z,14.94
2019-06-26T23:10:57.411Z,15.04
2019-06-26T23:14:01.719Z,14.99
2019-06-26T23:17:06.120Z,14.89
2019-06-26T23:20:10.753Z,14.85
2019-06-26T23:23:15.021Z,14.61
2019-06-26T23:26:23.994Z,14.75
2019-06-26T23:29:25.321Z,14.86
2019-06-26T23:32:29.747Z,14.96
2019-06-26T23:35:34.074Z,14.81
2019-06-26T23:38:38.345Z,14.76
2019-06-26T23:41:42.617Z,14.83
2019-06-26T23:44:46.912Z,14.83
2019-06-26T23:47:52.319Z,14.77
2019-06-26T23:50:56.585Z,14.92
2019-06-26T23:54:00.859Z,14.57
2019-06-26T23:57:05.140Z,14.59
